Time;durP1;ratioP1;P1;durP2;ratioP2;P2;SDS_P1;SDS_P2;PMS_P1;PMS_P2;Temp;Humidity;BMP_temperature;BMP_pressure;BME280_temperature;BME280_humidity;BME280_pressure;Samples;Min_cycle;Max_cycle;Signal;HPM_P1;HPM_P2
2021/12/20 00:00:20;;;;;;;33.45;5.43;;;;;;;;;;5007767;28;20396;-56
2021/12/20 00:02:46;;;;;;;;;;;;;;;;;;5009240;28;20081;-57
2021/12/20 00:05:14;;;;;;;29.23;4.68;;;;;;;;;;5012337;28;19967;-55
2021/12/20 00:07:40;;;;;;;22.42;4.53;;;;;;;;;;5012369;28;20132;-56
2021/12/20 00:10:06;;;;;;;27.08;5.43;;;;;;;;;;5013408;28;20088;-56
2021/12/20 00:12:32;;;;;;;22.77;4.43;;;;;;;;;;5007532;28;20050;-57
2021/12/20 00:14:58;;;;;;;32.63;5.45;;;;;;;;;;4994435;28;20566;-57
2021/12/20 00:17:24;;;;;;;23.60;5.15;;;;;;;;;;5011052;28;20049;-56
2021/12/20 00:19:50;;;;;;;32.15;5.68;;;;;;;;;;5008756;28;20038;-56
2021/12/20 00:22:16;;;;;;;27.38;4.78;;;;;;;;;;5012479;28;20392;-57
2021/12/20 00:24:43;;;;;;;26.58;4.93;;;;;;;;;;5011518;28;20046;-56
2021/12/20 00:27:11;;;;;;;30.40;5.00;;;;;;;;;;5011124;28;20041;-56
2021/12/20 00:29:37;;;;;;;26.45;4.82;;;;;;;;;;5008611;28;20053;-59
2021/12/20 00:32:05;;;;;;;24.90;5.00;;;;;;;;;;4992290;28;20046;-57
2021/12/20 00:34:31;;;;;;;36.63;5.50;;;;;;;;;;5011284;28;20132;-57
2021/12/20 00:37:02;;;;;;;26.00;4.32;;;;;;;;;;5008614;28;20053;-57
2021/12/20 00:42:14;;;;;;;29.55;4.90;;;;;;;;;;5009734;28;20488;-57
2021/12/20 00:44:40;;;;;;;29.60;5.15;;;;;;;;;;5012060;28;20103;-57
2021/12/20 00:47:06;;;;;;;25.05;5.03;;;;;;;;;;5011552;28;20042;-57
2021/12/20 00:49:32;;;;;;;30.45;4.97;;;;;;;;;;5007415;28;20112;-57
2021/12/20 00:51:58;;;;;;;30.48;5.10;;;;;;;;;;4998416;28;20484;-57
2021/12/20 00:54:24;;;;;;;25.42;4.50;;;;;;;;;;5010495;28;20522;-57
2021/12/20 00:56:50;;;;;;;29.08;4.63;;;;;;;;;;5010003;28;20050;-57
2021/12/20 00:59:17;;;;;;;29.83;5.50;;;;;;;;;;5004233;28;20038;-56
2021/12/20 01:01:43;;;;;;;32.03;5.72;;;;;;;;;;5007642;28;20053;-57
2021/12/20 01:04:09;;;;;;;28.65;5.05;;;;;;;;;;5010583;28;20046;-58
2021/12/20 01:06:36;;;;;;;32.75;4.97;;;;;;;;;;5011279;28;20400;-56
2021/12/20 01:09:02;;;;;;;34.05;6.05;;;;;;;;;;5012278;28;20468;-57
2021/12/20 01:11:29;;;;;;;27.63;5.10;;;;;;;;;;5010714;28;20046;-57
2021/12/20 01:13:57;;;;;;;28.10;4.95;;;;;;;;;;5010910;28;20045;-57
2021/12/20 01:16:30;;;;;;;31.67;5.57;;;;;;;;;;5009638;28;20053;-57
2021/12/20 01:18:57;;;;;;;31.95;4.55;;;;;;;;;;5010003;28;20056;-57
2021/12/20 01:21:23;;;;;;;27.77;4.95;;;;;;;;;;5009649;28;20392;-57
2021/12/20 01:23:50;;;;;;;35.03;5.57;;;;;;;;;;5008894;28;20038;-58
2021/12/20 01:26:16;;;;;;;36.78;5.43;;;;;;;;;;5009202;28;20041;-56
2021/12/20 01:28:43;;;;;;;24.92;4.82;;;;;;;;;;5011576;28;20396;-57
2021/12/20 01:31:09;;;;;;;23.67;3.90;;;;;;;;;;5009300;28;20087;-58
2021/12/20 01:33:35;;;;;;;24.90;5.20;;;;;;;;;;5010445;28;20107;-57
2021/12/20 01:36:01;;;;;;;29.10;5.05;;;;;;;;;;5010246;28;20042;-57
2021/12/20 01:38:27;;;;;;;21.63;4.55;;;;;;;;;;5008975;28;20147;-56
2021/12/20 01:40:53;;;;;;;29.67;4.53;;;;;;;;;;5008969;28;20058;-57
2021/12/20 01:43:19;;;;;;;29.80;5.45;;;;;;;;;;5009701;28;20034;-58
2021/12/20 01:45:48;;;;;;;29.30;5.50;;;;;;;;;;5008175;28;20500;-57
2021/12/20 01:48:17;;;;;;;31.45;5.03;;;;;;;;;;5010371;28;20492;-57
2021/12/20 01:53:14;;;;;;;27.45;4.93;;;;;;;;;;5007547;28;20195;-57
2021/12/20 01:55:40;;;;;;;25.27;4.75;;;;;;;;;;5009391;28;20038;-58
2021/12/20 01:58:06;;;;;;;32.33;5.68;;;;;;;;;;5006396;28;20092;-58
2021/12/20 02:00:34;;;;;;;36.30;6.22;;;5.10;99.90;;;;;;5006339;28;20099;-57
2021/12/20 02:03:02;;;;;;;31.92;5.32;;;5.10;99.90;;;;;;5007898;28;20463;-57
2021/12/20 02:08:26;;;;;;;32.67;5.13;;;5.00;99.90;;;;;;5008476;28;20128;-58
2021/12/20 02:10:55;;;;;;;22.95;5.13;;;5.00;99.90;;;;;;5008982;28;20057;-58
2021/12/20 02:13:24;;;;;;;28.63;4.93;;;5.00;99.90;;;;;;5007579;28;20431;-57
2021/12/20 02:15:51;;;;;;;24.55;4.60;;;5.00;99.90;;;;;;5006068;28;20059;-57
2021/12/20 02:18:16;;;;;;;33.88;5.38;;;5.00;99.90;;;;;;5005872;28;20128;-57
2021/12/20 02:20:43;;;;;;;34.05;5.20;;;5.00;99.90;;;;;;5010283;28;20120;-58
2021/12/20 02:23:09;;;;;;;25.35;4.68;;;5.00;99.90;;;;;;5010717;28;20065;-58
2021/12/20 02:25:35;;;;;;;28.10;5.57;;;5.00;99.90;;;;;;5009775;28;20400;-58
2021/12/20 02:28:11;;;;;;;29.75;5.10;;;4.90;99.90;;;;;;5007704;28;20030;-57
2021/12/20 02:30:50;;;;;;;34.70;5.47;;;4.90;99.90;;;;;;5009744;28;20046;-57
2021/12/20 02:38:48;;;;;;;31.30;5.03;;;4.80;99.90;;;;;;5009402;28;20045;-57
2021/12/20 02:41:26;;;;;;;30.77;5.55;;;4.80;99.90;;;;;;5009329;28;20153;-57
2021/12/20 02:43:57;;;;;;;;;;;4.80;99.90;;;;;;5007035;28;20080;-56
2021/12/20 02:46:33;;;;;;;26.48;5.00;;;4.70;99.90;;;;;;5009588;28;19921;-56
2021/12/20 02:48:58;;;;;;;28.75;4.88;;;4.70;99.90;;;;;;5006196;28;20049;-57
2021/12/20 02:51:26;;;;;;;32.03;5.20;;;4.70;99.90;;;;;;4998320;28;20033;-56
2021/12/20 02:53:52;;;;;;;23.65;4.90;;;4.70;99.90;;;;;;5008669;28;20578;-57
2021/12/20 02:56:18;;;;;;;32.20;5.50;;;4.60;99.90;;;;;;5008777;28;20108;-56
2021/12/20 02:58:44;;;;;;;27.60;5.47;;;4.60;99.90;;;;;;5006926;28;20087;-57
2021/12/20 03:01:10;;;;;;;33.30;5.10;;;4.50;99.90;;;;;;5010183;28;20037;-57
2021/12/20 03:03:36;;;;;;;33.13;5.38;;;4.60;99.90;;;;;;5009293;28;20048;-57
2021/12/20 03:06:10;;;;;;;28.08;4.95;;;4.60;99.90;;;;;;5009439;28;20042;-56
2021/12/20 03:08:37;;;;;;;32.05;5.25;;;4.60;99.90;;;;;;5009788;28;20121;-57
2021/12/20 03:11:03;;;;;;;38.33;5.65;;;4.60;99.90;;;;;;5010628;28;20077;-57
2021/12/20 03:13:29;;;;;;;30.95;5.05;;;4.60;99.90;;;;;;5007068;28;20104;-56
2021/12/20 03:15:55;;;;;;;34.35;4.40;;;4.60;99.90;;;;;;5008764;28;20049;-57
2021/12/20 03:18:20;;;;;;;33.05;4.93;;;4.60;99.90;;;;;;5006799;28;20331;-57
2021/12/20 03:20:46;;;;;;;24.48;4.63;;;4.50;99.90;;;;;;5002606;28;20130;-58
2021/12/20 03:23:11;;;;;;;25.05;4.50;;;4.50;99.90;;;;;;5004511;28;20164;-57
2021/12/20 03:25:37;;;;;;;27.90;4.47;;;4.50;99.90;;;;;;5007007;28;20042;-57
2021/12/20 03:28:02;;;;;;;29.67;4.47;;;4.40;99.90;;;;;;5012714;28;20061;-57
2021/12/20 03:30:28;;;;;;;35.15;4.78;;;4.50;99.90;;;;;;5012992;28;20050;-58
2021/12/20 03:32:53;;;;;;;31.00;5.15;;;4.40;99.90;;;;;;5013122;28;20452;-57
2021/12/20 03:35:19;;;;;;;24.85;4.10;;;4.40;99.90;;;;;;5012168;28;20500;-57
2021/12/20 03:37:45;;;;;;;30.90;3.70;;;4.30;99.90;;;;;;5012643;28;20045;-57
2021/12/20 03:40:11;;;;;;;23.58;4.60;;;4.30;99.90;;;;;;5013091;28;20146;-57
2021/12/20 03:42:41;;;;;;;24.20;4.65;;;4.20;99.90;;;;;;5009350;28;21489;-57
2021/12/20 03:45:08;;;;;;;24.92;4.85;;;4.20;99.90;;;;;;5013406;28;20050;-57
2021/12/20 03:47:34;;;;;;;28.98;5.30;;;4.20;99.90;;;;;;5011239;28;20092;-58
2021/12/20 03:49:59;;;;;;;24.48;4.50;;;4.20;99.90;;;;;;5010885;28;20130;-57
2021/12/20 03:52:25;;;;;;;27.75;5.45;;;4.10;99.90;;;;;;5013646;28;20053;-56
2021/12/20 03:54:50;;;;;;;25.85;4.18;;;4.10;99.90;;;;;;5012561;28;20049;-57
2021/12/20 03:57:16;;;;;;;26.63;4.60;;;4.10;99.90;;;;;;5010711;28;20059;-57
2021/12/20 03:59:42;;;;;;;24.63;4.88;;;4.10;99.90;;;;;;5013190;28;20132;-58
2021/12/20 04:02:08;;;;;;;21.48;3.40;;;4.10;99.90;;;;;;5011716;28;20030;-57
2021/12/20 04:04:33;;;;;;;20.98;3.60;;;4.00;99.90;;;;;;5010142;28;20041;-57
2021/12/20 04:06:59;;;;;;;30.58;4.30;;;3.90;99.90;;;;;;5012650;28;20045;-58
2021/12/20 04:09:24;;;;;;;20.55;3.90;;;3.90;99.90;;;;;;5015111;28;20091;-57
2021/12/20 04:11:50;;;;;;;26.85;3.95;;;3.90;99.90;;;;;;5010912;28;20054;-53
2021/12/20 04:14:15;;;;;;;25.20;3.67;;;3.80;99.90;;;;;;5008727;28;20049;-57
2021/12/20 04:16:41;;;;;;;27.35;4.35;;;3.80;99.90;;;;;;5009621;28;20038;-56
2021/12/20 04:19:06;;;;;;;22.23;3.90;;;3.70;99.90;;;;;;4995109;28;20042;-57
2021/12/20 04:21:32;;;;;;;25.92;3.83;;;3.60;99.90;;;;;;5010194;28;20049;-57
2021/12/20 04:23:58;;;;;;;26.45;4.00;;;3.60;99.90;;;;;;5008587;28;20044;-56
2021/12/20 04:26:23;;;;;;;21.80;3.90;;;3.50;99.90;;;;;;5013338;28;20161;-56
2021/12/20 04:28:49;;;;;;;27.23;4.00;;;3.50;99.90;;;;;;5009833;28;20073;-57
2021/12/20 04:31:15;;;;;;;25.80;3.85;;;3.40;99.90;;;;;;5011422;28;20488;-57
2021/12/20 04:33:41;;;;;;;29.70;3.83;;;3.40;99.90;;;;;;5009917;28;20125;-57
2021/12/20 04:36:07;;;;;;;23.52;3.50;;;3.40;99.90;;;;;;5007997;28;20034;-57
2021/12/20 04:38:33;;;;;;;25.88;3.30;;;3.30;99.90;;;;;;5009923;28;20046;-57
2021/12/20 04:40:59;;;;;;;18.88;3.70;;;3.30;99.90;;;;;;5010644;28;20518;-57
2021/12/20 04:43:25;;;;;;;17.65;3.35;;;3.30;99.90;;;;;;5009797;28;20050;-57
2021/12/20 04:45:51;;;;;;;21.20;3.20;;;3.30;99.90;;;;;;5010484;28;20042;-57
2021/12/20 04:48:17;;;;;;;22.88;4.25;;;3.20;99.90;;;;;;4996553;28;20046;-57
2021/12/20 04:50:42;;;;;;;24.25;3.25;;;3.10;99.90;;;;;;5007973;28;20169;-58
2021/12/20 04:53:08;;;;;;;25.30;3.72;;;3.10;99.90;;;;;;5010392;28;20057;-57
2021/12/20 04:55:34;;;;;;;23.05;4.03;;;3.00;99.90;;;;;;5008825;28;20350;-56
2021/12/20 04:58:01;;;;;;;15.25;3.42;;;3.00;99.90;;;;;;5009432;28;20507;-56
2021/12/20 05:00:30;;;;;;;21.38;3.63;;;2.90;99.90;;;;;;4992805;28;20157;-55
2021/12/20 05:02:56;;;;;;;14.40;3.17;;;2.80;99.90;;;;;;5006860;28;20053;-57
2021/12/20 05:05:22;;;;;;;21.15;3.00;;;2.80;99.90;;;;;;5009908;28;20116;-56
2021/12/20 05:07:49;;;;;;;21.55;3.38;;;2.80;99.90;;;;;;5007538;28;20048;-57
2021/12/20 05:10:26;;;;;;;21.10;3.28;;;2.80;99.90;;;;;;5009630;28;20083;-57
2021/12/20 05:12:53;;;;;;;21.70;2.95;;;2.70;99.90;;;;;;5009419;28;20046;-57
2021/12/20 05:15:19;;;;;;;18.25;3.83;;;2.60;99.90;;;;;;5008545;28;20155;-56
2021/12/20 05:17:44;;;;;;;19.73;3.78;;;2.60;99.90;;;;;;5008963;28;20049;-57
2021/12/20 05:20:11;;;;;;;21.60;3.85;;;2.60;99.90;;;;;;5008461;28;20140;-57
2021/12/20 05:22:36;;;;;;;19.48;3.35;;;2.50;99.90;;;;;;5011046;28;20042;-57
2021/12/20 05:25:03;;;;;;;17.50;3.60;;;2.40;99.90;;;;;;5007598;28;20496;-57
2021/12/20 05:27:28;;;;;;;17.40;2.88;;;2.30;99.90;;;;;;5009797;28;20096;-57
2021/12/20 05:29:54;;;;;;;20.70;3.90;;;2.30;99.90;;;;;;5010085;28;20046;-57
2021/12/20 05:32:20;;;;;;;21.33;3.35;;;2.30;99.90;;;;;;5011413;28;20038;-57
2021/12/20 05:34:46;;;;;;;15.07;3.28;;;2.30;99.90;;;;;;5009832;28;20053;-55
2021/12/20 05:37:13;;;;;;;19.25;4.18;;;2.20;99.90;;;;;;5011635;28;20041;-58
2021/12/20 05:39:40;;;;;;;15.32;3.00;;;2.20;99.90;;;;;;5006763;28;20048;-57
2021/12/20 05:42:06;;;;;;;19.70;4.05;;;2.20;99.90;;;;;;5007860;28;20073;-57
2021/12/20 05:44:31;;;;;;;18.40;3.70;;;2.10;99.90;;;;;;5009113;28;20045;-57
2021/12/20 05:46:57;;;;;;;18.42;3.35;;;2.10;99.90;;;;;;5008742;28;20484;-57
2021/12/20 05:49:22;;;;;;;15.85;3.97;;;2.10;99.90;;;;;;5010151;28;20452;-57
2021/12/20 05:51:48;;;;;;;19.63;5.20;;;2.00;99.90;;;;;;5009486;28;20064;-56
2021/12/20 05:54:14;;;;;;;15.63;3.70;;;2.00;99.90;;;;;;5007908;28;20500;-57
2021/12/20 05:56:39;;;;;;;13.85;3.05;;;1.90;99.90;;;;;;5011180;28;20046;-57
2021/12/20 05:59:05;;;;;;;20.08;4.20;;;1.90;99.90;;;;;;5008652;28;20057;-57
2021/12/20 06:01:31;;;;;;;19.92;5.35;;;1.80;99.90;;;;;;5008595;28;20132;-58
2021/12/20 06:03:57;;;;;;;15.23;4.35;;;1.80;99.90;;;;;;5008918;28;20064;-56
2021/12/20 06:06:23;;;;;;;15.98;4.20;;;1.70;99.90;;;;;;5008317;28;20100;-57
2021/12/20 06:08:48;;;;;;;24.27;4.63;;;1.70;99.90;;;;;;4989294;28;20038;-56
2021/12/20 06:11:14;;;;;;;24.35;4.85;;;1.70;99.90;;;;;;5009625;28;20045;-56
2021/12/20 06:13:39;;;;;;;17.20;4.68;;;1.70;99.90;;;;;;5005424;28;20049;-57
2021/12/20 06:16:05;;;;;;;20.98;4.70;;;1.60;99.90;;;;;;5011563;28;20052;-57
2021/12/20 06:18:30;;;;;;;20.10;5.75;;;1.60;99.90;;;;;;5006276;28;20042;-57
2021/12/20 06:20:56;;;;;;;18.83;5.30;;;1.60;99.90;;;;;;5003626;28;20483;-56
2021/12/20 06:23:22;;;;;;;20.38;4.70;;;1.60;99.90;;;;;;5006957;28;20065;-56
2021/12/20 06:25:47;;;;;;;27.88;5.07;;;1.50;99.90;;;;;;5009113;28;20038;-56
2021/12/20 06:28:13;;;;;;;21.73;4.13;;;1.50;99.90;;;;;;5010296;28;20044;-57
2021/12/20 06:30:38;;;;;;;18.20;4.13;;;1.50;99.90;;;;;;5006921;28;20141;-56
2021/12/20 06:33:04;;;;;;;16.27;4.25;;;1.50;99.90;;;;;;4998127;28;20112;-56
2021/12/20 06:35:29;;;;;;;19.23;4.20;;;1.50;99.90;;;;;;4982926;28;20121;-56
2021/12/20 06:38:03;;;;;;;21.83;5.13;;;1.40;99.90;;;;;;5006246;28;20042;-57
2021/12/20 06:40:32;;;;;;;22.00;4.13;;;1.40;99.90;;;;;;5010381;28;20052;-57
2021/12/20 06:42:58;;;;;;;19.58;3.58;;;1.40;99.90;;;;;;5008724;28;20057;-57
2021/12/20 06:45:23;;;;;;;16.42;3.58;;;1.40;99.90;;;;;;5010633;28;20041;-56
2021/12/20 06:47:51;;;;;;;18.00;3.60;;;1.30;99.90;;;;;;4989321;28;20408;-57
2021/12/20 06:50:16;;;;;;;20.75;3.83;;;1.30;99.90;;;;;;5006931;28;20045;-57
2021/12/20 06:52:42;;;;;;;20.45;3.80;;;1.30;99.90;;;;;;5005807;28;20049;-57
2021/12/20 06:55:09;;;;;;;18.13;3.70;;;1.30;99.90;;;;;;5009049;28;20042;-56
2021/12/20 06:57:35;;;;;;;15.80;3.87;;;1.20;99.90;;;;;;5009617;28;20054;-57
2021/12/20 07:00:01;;;;;;;12.20;3.65;;;1.20;99.90;;;;;;5009272;28;20300;-57
2021/12/20 07:02:28;;;;;;;18.55;3.58;;;1.20;99.90;;;;;;5004554;28;20053;-55
2021/12/20 07:04:53;;;;;;;18.23;3.67;;;1.10;99.90;;;;;;5008917;28;21569;-57
2021/12/20 07:07:19;;;;;;;16.95;3.65;;;1.10;99.90;;;;;;5009285;28;20060;-57
2021/12/20 07:09:45;;;;;;;19.73;4.05;;;1.10;99.90;;;;;;5010270;28;20046;-57
2021/12/20 07:12:10;;;;;;;17.05;3.25;;;1.10;99.90;;;;;;5008049;28;20041;-57
2021/12/20 07:14:37;;;;;;;16.15;3.70;;;1.00;99.90;;;;;;5008287;28;20038;-56
2021/12/20 07:17:03;;;;;;;14.48;3.80;;;1.00;99.90;;;;;;5005143;28;20046;-57
2021/12/20 07:19:28;;;;;;;17.33;4.60;;;1.00;99.90;;;;;;5004987;28;20050;-57
2021/12/20 07:21:54;;;;;;;19.25;4.60;;;1.00;99.90;;;;;;5008453;28;20116;-57
2021/12/20 07:24:19;;;;;;;16.92;4.35;;;1.00;99.90;;;;;;5004785;28;20449;-55
2021/12/20 07:26:45;;;;;;;17.48;3.95;;;1.00;99.90;;;;;;5008857;28;20037;-57
2021/12/20 07:29:11;;;;;;;18.15;3.55;;;0.90;99.90;;;;;;5008404;28;20113;-57
2021/12/20 07:31:36;;;;;;;16.88;4.45;;;0.90;99.90;;;;;;4984022;28;20096;-57
2021/12/20 07:34:03;;;;;;;19.52;4.00;;;0.90;99.90;;;;;;5001321;28;20038;-56
2021/12/20 07:36:28;;;;;;;24.20;4.28;;;0.90;99.90;;;;;;5009589;28;20037;-57
2021/12/20 07:38:55;;;;;;;19.95;4.60;;;0.90;99.90;;;;;;5007677;28;20041;-56
2021/12/20 07:41:22;;;;;;;24.38;4.57;;;0.90;99.90;;;;;;5010846;28;20046;-55
2021/12/20 07:43:49;;;;;;;25.48;4.57;;;0.90;99.90;;;;;;5006970;28;20045;-57
2021/12/20 07:46:17;;;;;;;17.15;4.55;;;0.90;99.90;;;;;;5007271;28;20049;-56
2021/12/20 07:48:43;;;;;;;18.77;4.00;;;0.90;99.90;;;;;;5010694;28;20054;-56
2021/12/20 07:51:08;;;;;;;19.85;4.68;;;0.90;99.90;;;;;;4991804;28;20092;-56
2021/12/20 07:53:34;;;;;;;20.70;4.07;;;0.90;99.90;;;;;;5009316;28;20558;-56
2021/12/20 07:56:00;;;;;;;19.27;4.22;;;0.80;99.90;;;;;;5009436;28;20065;-56
2021/12/20 07:58:25;;;;;;;18.55;4.10;;;0.80;99.90;;;;;;4992730;28;20041;-57
2021/12/20 08:00:51;;;;;;;18.50;4.28;;;0.80;99.90;;;;;;5006800;28;20074;-57
2021/12/20 08:03:17;;;;;;;18.13;4.05;;;0.80;99.90;;;;;;5005219;28;20087;-57
2021/12/20 08:05:43;;;;;;;25.05;4.80;;;0.80;99.90;;;;;;5004383;28;20225;-57
2021/12/20 08:08:09;;;;;;;22.65;5.55;;;0.80;99.90;;;;;;5005946;28;20546;-57
2021/12/20 08:10:35;;;;;;;15.80;4.18;;;0.80;99.90;;;;;;5010680;28;20054;-57
2021/12/20 08:13:01;;;;;;;16.85;4.13;;;0.80;99.90;;;;;;5011933;28;20134;-57
2021/12/20 08:15:27;;;;;;;23.20;4.55;;;0.80;99.90;;;;;;5010269;28;20125;-58
2021/12/20 08:17:54;;;;;;;18.52;4.40;;;0.70;99.90;;;;;;5009051;28;20079;-59
2021/12/20 08:20:20;;;;;;;16.80;3.92;;;0.80;99.90;;;;;;5005934;28;20072;-58
2021/12/20 08:22:46;;;;;;;15.85;4.32;;;0.70;99.90;;;;;;5013698;28;20387;-59
2021/12/20 08:25:12;;;;;;;19.17;4.50;;;0.70;99.90;;;;;;5014931;28;20042;-58
2021/12/20 08:27:38;;;;;;;16.48;5.13;;;0.70;99.90;;;;;;5013213;28;20049;-56
2021/12/20 08:30:05;;;;;;;14.75;4.55;;;0.70;99.90;;;;;;5014515;28;20041;-58
2021/12/20 08:32:31;;;;;;;16.17;5.30;;;0.70;99.90;;;;;;5014655;28;20531;-58
2021/12/20 08:34:57;;;;;;;20.60;5.93;;;0.70;99.90;;;;;;5014718;28;20042;-55
2021/12/20 08:37:22;;;;;;;17.58;5.50;;;0.70;99.90;;;;;;5013553;28;20447;-55
2021/12/20 08:39:48;;;;;;;16.20;4.80;;;0.80;99.90;;;;;;5014674;28;20046;-54
2021/12/20 08:42:14;;;;;;;17.95;5.13;;;0.80;99.90;;;;;;5014791;28;20128;-56
2021/12/20 08:44:39;;;;;;;18.98;4.60;;;0.80;99.90;;;;;;5014792;28;20053;-56
2021/12/20 08:47:05;;;;;;;22.48;5.47;;;0.80;99.90;;;;;;4996853;28;20054;-56
2021/12/20 08:49:31;;;;;;;20.90;5.38;;;0.80;99.90;;;;;;5014831;28;20046;-56
2021/12/20 08:51:57;;;;;;;22.13;4.70;;;0.80;99.90;;;;;;5013808;28;20034;-56
2021/12/20 08:54:24;;;;;;;16.98;5.20;;;0.90;99.90;;;;;;5014745;28;20040;-56
2021/12/20 08:56:51;;;;;;;14.50;4.63;;;0.90;99.90;;;;;;5014626;28;20041;-57
2021/12/20 08:59:16;;;;;;;20.70;5.00;;;0.90;99.90;;;;;;5014552;28;20277;-56
2021/12/20 09:01:42;;;;;;;21.92;5.40;;;0.90;99.90;;;;;;5014159;28;20068;-56
2021/12/20 09:04:08;;;;;;;24.13;5.82;;;1.00;99.90;;;;;;5014328;28;20557;-55
2021/12/20 09:06:38;;;;;;;24.42;5.55;;;1.00;99.90;;;;;;5014257;28;20042;-56
2021/12/20 09:09:05;;;;;;;17.05;5.47;;;1.00;99.90;;;;;;5014391;28;20087;-56
2021/12/20 09:11:30;;;;;;;23.15;5.75;;;1.00;99.90;;;;;;5014234;28;20085;-56
2021/12/20 09:13:56;;;;;;;31.08;6.40;;;1.10;99.90;;;;;;5014409;28;20433;-56
2021/12/20 09:16:22;;;;;;;28.42;6.97;;;1.10;99.90;;;;;;5014045;28;20117;-56
2021/12/20 09:18:48;;;;;;;26.60;6.97;;;1.20;99.90;;;;;;5014056;28;20400;-56
2021/12/20 09:21:15;;;;;;;25.50;6.55;;;1.20;99.90;;;;;;5013868;28;20081;-56
2021/12/20 09:23:41;;;;;;;22.17;6.00;;;1.30;99.90;;;;;;5014102;28;20038;-56
2021/12/20 09:26:06;;;;;;;18.83;5.90;;;1.40;99.90;;;;;;5013581;28;20395;-55
2021/12/20 09:28:33;;;;;;;28.88;6.75;;;1.40;99.90;;;;;;5013996;28;20133;-56
2021/12/20 09:31:00;;;;;;;35.13;7.63;;;1.40;99.90;;;;;;5013684;28;20048;-56
2021/12/20 09:33:26;;;;;;;29.73;7.45;;;1.60;99.90;;;;;;5012324;28;20057;-53
2021/12/20 09:35:53;;;;;;;33.25;6.90;;;1.70;99.90;;;;;;5013497;28;20061;-56
2021/12/20 09:38:20;;;;;;;31.98;7.57;;;1.70;99.90;;;;;;5013823;28;20034;-56
2021/12/20 09:41:13;;;;;;;27.25;6.60;;;1.80;99.90;;;;;;5013617;28;20049;-57
2021/12/20 09:43:37;;;;;;;39.70;7.47;;;1.90;99.90;;;;;;4999323;28;20412;-57
2021/12/20 09:46:03;;;;;;;35.95;7.75;;;2.10;99.90;;;;;;4993853;28;20504;-55
2021/12/20 09:48:29;;;;;;;33.85;7.97;;;2.20;99.90;;;;;;5010674;28;20042;-57
2021/12/20 09:50:57;;;;;;;35.58;7.47;;;2.30;99.90;;;;;;5012106;28;20464;-57
2021/12/20 09:53:23;;;;;;;33.60;7.13;;;2.30;99.90;;;;;;5013236;28;20137;-57
2021/12/20 09:55:51;;;;;;;29.38;7.18;;;2.50;99.90;;;;;;5013373;28;20122;-57
2021/12/20 09:58:16;;;;;;;32.50;7.68;;;2.60;99.90;;;;;;5013473;28;20034;-57
2021/12/20 10:00:42;;;;;;;32.17;7.68;;;2.60;99.90;;;;;;5009903;28;20389;-57
2021/12/20 10:03:08;;;;;;;31.80;8.05;;;2.70;99.90;;;;;;5011090;28;20298;-57
2021/12/20 10:05:35;;;;;;;33.67;8.80;;;2.80;99.90;;;;;;5012006;28;20057;-56
2021/12/20 10:08:12;;;;;;;49.67;10.82;;;2.80;99.90;;;;;;5007629;28;20045;-57
2021/12/20 10:10:43;;;;;;;34.05;10.00;;;2.90;99.90;;;;;;5012951;28;20046;-58
2021/12/20 10:13:33;;;;;;;31.70;9.00;;;3.00;99.90;;;;;;5012904;28;20037;-57
2021/12/20 10:16:01;;;;;;;30.67;7.78;;;3.10;99.90;;;;;;5013106;28;20038;-57
2021/12/20 10:18:27;;;;;;;34.83;8.53;;;3.20;99.90;;;;;;5013136;28;20053;-57
2021/12/20 10:20:56;;;;;;;31.42;7.78;;;3.30;99.90;;;;;;5012744;28;20057;-57
2021/12/20 10:23:22;;;;;;;;;;;3.20;99.90;;;;;;5013282;28;20483;-57
2021/12/20 10:25:54;;;;;;;39.25;8.25;;;3.10;99.90;;;;;;5011234;28;20379;-57
2021/12/20 10:28:23;;;;;;;28.65;6.80;;;2.30;99.90;;;;;;5012794;28;20073;-57
2021/12/20 10:30:52;;;;;;;26.70;7.32;;;3.20;99.90;;;;;;5012420;28;20084;-57
2021/12/20 10:33:21;;;;;;;26.70;7.72;;;3.20;99.90;;;;;;5012635;28;20046;-57
2021/12/20 10:35:50;;;;;;;28.33;7.03;;;3.30;99.90;;;;;;5011956;28;20042;-56
2021/12/20 10:38:30;;;;;;;30.48;7.03;;;3.30;99.90;;;;;;5012304;28;20045;-57
2021/12/20 10:41:00;;;;;;;28.15;6.45;;;3.40;99.90;;;;;;5012602;28;20219;-57
2021/12/20 10:43:32;;;;;;;26.08;6.45;;;3.40;99.90;;;;;;4999991;28;20143;-57
2021/12/20 10:45:58;;;;;;;33.05;7.43;;;3.50;99.90;;;;;;5002654;28;20095;-57
2021/12/20 10:48:31;;;;;;;28.30;7.57;;;3.50;99.90;;;;;;5011244;28;20124;-57
2021/12/20 10:50:57;;;;;;;26.15;7.07;;;3.50;99.90;;;;;;5012566;28;20057;-57
2021/12/20 10:53:24;;;;;;;18.25;6.30;;;3.60;99.90;;;;;;5012553;28;20423;-58
2021/12/20 10:55:56;;;;;;;27.45;7.05;;;3.80;99.90;;;;;;5012275;28;20129;-56
2021/12/20 10:58:35;;;;;;;24.73;5.97;;;3.70;99.90;;;;;;5012372;28;20065;-58
2021/12/20 11:01:06;;;;;;;21.83;6.38;;;3.80;99.90;;;;;;5008459;28;20132;-58
2021/12/20 11:03:37;;;;;;;21.15;5.78;;;3.90;99.90;;;;;;5006817;28;20206;-58
2021/12/20 11:11:27;;;;;;;20.45;4.80;;;4.20;99.90;;;;;;5009969;28;20120;-58
2021/12/20 11:13:53;;;;;;;12.60;4.03;;;4.30;99.90;;;;;;5011900;28;20077;-57
2021/12/20 11:16:30;;;;;;;14.93;3.67;;;4.40;99.90;;;;;;5012034;28;20069;-58
2021/12/20 11:19:09;;;;;;;17.75;4.18;;;4.50;99.90;;;;;;5011501;28;20050;-56
2021/12/20 11:21:44;;;;;;;15.27;3.50;;;4.60;99.90;;;;;;5011510;28;20050;-57
2021/12/20 11:24:13;;;;;;;14.18;4.00;;;4.60;99.90;;;;;;4992243;28;20093;-58
2021/12/20 11:26:39;;;;;;;16.50;4.07;;;4.70;99.90;;;;;;5007519;28;20057;-58
2021/12/20 11:29:04;;;;;;;11.98;3.67;;;4.70;99.90;;;;;;5011527;28;20046;-58
2021/12/20 11:31:32;;;;;;;15.18;3.85;;;4.80;99.90;;;;;;5010703;28;20092;-58
2021/12/20 11:33:59;;;;;;;15.80;3.30;;;4.80;99.90;;;;;;5009284;28;20084;-58
2021/12/20 11:36:25;;;;;;;15.95;3.88;;;5.10;99.90;;;;;;5010938;28;20121;-57
2021/12/20 11:38:52;;;;;;;10.80;2.65;;;4.90;99.90;;;;;;5011302;28;20132;-58
2021/12/20 11:41:18;;;;;;;12.30;3.38;;;4.90;99.90;;;;;;5010943;28;20041;-58
2021/12/20 11:43:48;;;;;;;11.30;3.78;;;5.00;99.90;;;;;;5011608;28;20235;-56
2021/12/20 11:46:14;;;;;;;15.45;3.40;;;5.00;99.90;;;;;;5005912;28;20041;-58
2021/12/20 11:48:41;;;;;;;11.75;3.65;;;5.10;99.90;;;;;;4996146;28;20448;-56
2021/12/20 11:51:08;;;;;;;9.30;3.13;;;5.10;99.90;;;;;;5013999;28;20050;-58
2021/12/20 11:53:36;;;;;;;10.27;2.58;;;5.20;99.90;;;;;;5022195;28;20546;-57
2021/12/20 11:56:02;;;;;;;11.98;2.58;;;5.20;99.90;;;;;;5015288;28;20073;-57
2021/12/20 11:58:30;;;;;;;10.77;2.42;;;5.30;99.90;;;;;;5013199;28;20127;-58
2021/12/20 12:00:57;;;;;;;;;;;5.40;99.90;;;;;;5011018;28;20065;-58
2021/12/20 12:03:24;;;;;;;9.20;2.90;;;;;;;;;;5013810;28;19943;-58
2021/12/20 12:06:12;;;;;;;10.32;2.47;;;;;;;;;;5012278;28;20069;-56
2021/12/20 12:08:52;;;;;;;9.68;2.67;;;;;;;;;;5012904;28;20044;-58
2021/12/20 12:11:19;;;;;;;8.07;2.45;;;;;;;;;;5011439;28;20472;-57
2021/12/20 12:13:50;;;;;;;8.57;2.53;;;;;;;;;;5012847;28;20045;-56
2021/12/20 12:16:28;;;;;;;11.15;2.28;;;;;;;;;;5011833;28;20054;-57
2021/12/20 12:18:54;;;;;;;;;;;;;;;;;;5014745;28;20404;-58
2021/12/20 12:21:39;;;;;;;8.93;2.47;;;;;;;;;;5014181;28;19971;-58
2021/12/20 12:24:15;;;;;;;7.68;1.92;;;;;;;;;;5014195;28;20503;-58
2021/12/20 12:26:44;;;;;;;7.13;1.80;;;;;;;;;;5014431;28;20058;-58
2021/12/20 12:29:24;;;;;;;7.95;1.80;;;;;;;;;;5006716;28;20506;-58
2021/12/20 12:31:50;;;;;;;7.50;2.08;;;;;;;;;;5013669;28;20072;-57
2021/12/20 12:34:16;;;;;;;5.75;1.33;;;;;;;;;;5011547;28;20049;-57
2021/12/20 12:36:43;;;;;;;6.10;1.75;;;;;;;;;;5013965;28;20484;-58
2021/12/20 12:39:10;;;;;;;6.43;1.63;;;;;;;;;;4995886;28;20046;-58
2021/12/20 12:41:50;;;;;;;6.63;1.63;;;;;;;;;;5014378;28;20069;-58
2021/12/20 12:44:22;;;;;;;7.65;1.63;;;;;;;;;;5014757;28;20034;-57
2021/12/20 12:46:54;;;;;;;5.93;1.40;;;;;;;;;;5011188;28;20503;-57
2021/12/20 12:49:23;;;;;;;5.85;1.42;;;;;;;;;;4997303;28;20140;-56
2021/12/20 12:51:52;;;;;;;5.07;1.58;;;;;;;;;;5012737;28;20488;-57
2021/12/20 12:54:33;;;;;;;9.80;1.40;;;;;;;;;;5008367;28;20496;-58
2021/12/20 12:57:11;;;;;;;4.78;1.40;;;;;;;;;;5010838;28;20499;-57
2021/12/20 12:59:43;;;;;;;4.97;1.35;;;;;;;;;;5008347;28;20050;-58
2021/12/20 13:02:11;;;;;;;6.47;1.77;;;;;;;;;;5012826;28;20153;-57
2021/12/20 13:04:44;;;;;;;5.00;1.50;;;;;;;;;;5012456;28;20723;-57
2021/12/20 13:07:11;;;;;;;9.48;1.77;;;;;;;;;;5012912;28;20073;-58
2021/12/20 13:09:43;;;;;;;5.50;1.52;;;;;;;;;;5012933;28;20046;-56
2021/12/20 13:12:13;;;;;;;6.90;2.05;;;;;;;;;;5013550;28;20523;-57
2021/12/20 13:15:12;;;;;;;6.80;1.70;;;;;;;;;;5014011;28;20046;-58
2021/12/20 13:17:39;;;;;;;9.27;2.33;;;;;;;;;;5014207;28;20050;-58
2021/12/20 13:20:24;;;;;;;7.80;2.25;;;;;;;;;;5013578;28;20049;-58
2021/12/20 13:23:06;;;;;;;5.70;1.70;;;;;;;;;;5001274;28;20082;-58
2021/12/20 13:25:33;;;;;;;8.30;1.80;;;;;;;;;;4994271;28;20047;-56
2021/12/20 13:27:59;;;;;;;8.75;2.05;;;;;;;;;;5009790;28;20046;-58
2021/12/20 13:30:32;;;;;;;10.63;1.90;;;;;;;;;;5013492;28;20049;-58
2021/12/20 13:32:59;;;;;;;12.63;2.40;;;;;;;;;;5013761;28;20046;-58